Coyanosa, Texas
Current Conditions -  °F | °C
As of 10:53 AM on Saturday 20 Dec 2014 (Local Time) from KFST Reporting Station
Clear Clear  
Wind Chill: 53°   Ceiling: Unl
Heat Index: 53°   Visibility: 10mi
Dew Point: 31°   Wind: 3mph
Humidity: 43%   Direction: 350°N
Pressure: 30.17"   Gusts: NA
Location:  31.24°N, 103.06°W
Report Text: KFST 201653Z AUTO 35003KT 10SM CLR 12/M01 A3017 RMK AO2 SLP195 T01171006 $
Loading
Personal Weather Stations






























Interactive Weather Map New forecast layout! Learn more

10-Day Weather Forecast

Advertisements
Track Severe Weather on mobile